Time;durP1;ratioP1;P1;durP2;ratioP2;P2;SDS_P1;SDS_P2;PMS_P1;PMS_P2;Temp;Humidity;BMP_temperature;BMP_pressure;BME280_temperature;BME280_humidity;BME280_pressure;Samples;Min_cycle;Max_cycle;Signal;HPM_P1;HPM_P2
2022/09/14 05:40:39;;;;;;;2.80;2.50;;;16.00;73.10;;;;;;4482794;28;17382593;-72
2022/09/14 05:43:04;;;;;;;2.60;2.40;;;16.10;73.00;;;;;;5054813;28;20036;-71
2022/09/14 05:45:30;;;;;;;2.67;2.35;;;16.20;73.00;;;;;;5054755;28;20021;-71
2022/09/14 05:48:06;;;;;;;2.60;2.40;;;16.20;72.90;;;;;;5054393;28;20028;-71
2022/09/14 05:50:32;;;;;;;2.67;2.45;;;16.20;72.90;;;;;;5072893;28;20145;-78
2022/09/14 05:52:59;;;;;;;2.60;2.40;;;16.30;72.90;;;;;;5038204;28;20075;-71
2022/09/14 05:55:25;;;;;;;2.60;2.40;;;16.40;72.80;;;;;;5054975;28;20441;-69
2022/09/14 05:57:51;;;;;;;3.03;2.70;;;16.40;72.70;;;;;;5055379;28;20039;-72
2022/09/14 06:00:17;;;;;;;2.80;2.50;;;16.40;72.60;;;;;;5073452;28;20453;-70
2022/09/14 06:02:51;;;;;;;2.83;2.60;;;16.50;73.20;;;;;;5055453;28;20509;-69
2022/09/14 06:05:17;;;;;;;2.47;2.28;;;16.50;72.60;;;;;;5055565;28;20124;-70
2022/09/14 06:07:43;;;;;;;3.10;2.55;;;16.60;72.60;;;;;;5073553;28;20458;-70
2022/09/14 06:10:09;;;;;;;2.67;2.47;;;16.60;72.50;;;;;;5055396;28;20081;-70
2022/09/14 06:12:35;;;;;;;2.60;2.40;;;16.70;72.50;;;;;;5073553;28;20043;-71
2022/09/14 06:15:01;;;;;;;2.83;2.53;;;16.70;72.30;;;;;;5074136;28;20024;-73
2022/09/14 06:17:29;;;;;;;2.90;2.50;;;16.70;72.30;;;;;;5059148;28;20527;-74
2022/09/14 06:19:54;;;;;;;2.55;2.35;;;16.80;72.20;;;;;;5059422;28;20060;-72
2022/09/14 06:22:20;;;;;;;2.75;2.53;;;16.80;72.20;;;;;;5077267;28;20075;-73
2022/09/14 06:24:46;;;;;;;2.97;2.70;;;16.80;72.10;;;;;;5078006;28;20032;-72
2022/09/14 06:27:12;;;;;;;2.60;2.40;;;16.90;72.10;;;;;;5077456;28;20043;-72
2022/09/14 06:29:37;;;;;;;2.90;2.60;;;17.00;72.00;;;;;;5076946;28;20025;-71
2022/09/14 06:32:03;;;;;;;2.67;2.45;;;17.00;71.90;;;;;;5077482;28;20039;-71
2022/09/14 06:34:29;;;;;;;2.60;2.40;;;17.10;71.80;;;;;;5077493;28;20024;-72
2022/09/14 06:36:55;;;;;;;2.67;2.40;;;17.20;71.70;;;;;;5059239;28;20086;-70
2022/09/14 06:39:21;;;;;;;2.53;2.25;;;17.30;71.60;;;;;;5059064;28;20028;-70
2022/09/14 06:41:47;;;;;;;2.50;2.30;;;17.40;71.40;;;;;;5069701;28;20466;-72
2022/09/14 06:44:13;;;;;;;2.22;2.08;;;17.50;71.20;;;;;;5076600;28;20103;-69
2022/09/14 06:46:38;;;;;;;2.20;2.00;;;17.50;70.90;;;;;;5075644;28;20060;-71
2022/09/14 06:49:10;;;;;;;2.50;2.30;;;17.50;70.80;;;;;;5091237;28;20073;-69
2022/09/14 06:51:41;;;;;;;2.58;2.38;;;17.50;70.80;;;;;;5095751;28;20035;-72
2022/09/14 06:54:09;;;;;;;2.45;2.25;;;17.50;70.70;;;;;;5096962;28;20020;-72
2022/09/14 06:56:37;;;;;;;2.10;2.00;;;17.50;70.70;;;;;;5096772;28;20381;-71
2022/09/14 06:59:04;;;;;;;2.50;2.30;;;17.50;70.60;;;;;;5096963;28;20020;-71
2022/09/14 07:01:30;;;;;;;2.42;2.17;;;17.60;70.50;;;;;;5097193;28;20327;-72
2022/09/14 07:03:56;;;;;;;2.60;2.40;;;17.60;70.40;;;;;;5096618;28;20020;-76
2022/09/14 07:06:24;;;;;;;3.03;2.30;;;17.60;70.40;;;;;;5095477;28;20024;-72
2022/09/14 07:08:51;;;;;;;2.00;1.80;;;17.60;70.30;;;;;;5095462;28;20388;-72
2022/09/14 07:11:19;;;;;;;2.42;2.22;;;17.60;70.30;;;;;;5096366;28;20458;-71
2022/09/14 07:13:46;;;;;;;2.28;2.08;;;17.60;70.20;;;;;;5095711;28;20032;-72
2022/09/14 07:16:13;;;;;;;2.28;2.08;;;17.70;70.10;;;;;;5095261;28;20020;-72
2022/09/14 07:18:40;;;;;;;2.08;1.92;;;17.70;69.90;;;;;;5095488;28;20100;-72
2022/09/14 07:21:08;;;;;;;1.90;1.80;;;17.80;69.80;;;;;;5096354;28;20113;-72
2022/09/14 07:23:39;;;;;;;2.10;2.00;;;17.90;69.80;;;;;;5096751;28;20028;-71
2022/09/14 07:26:17;;;;;;;2.38;2.17;;;17.90;69.50;;;;;;5094479;28;20044;-72
2022/09/14 07:28:45;;;;;;;2.33;2.00;;;18.00;69.20;;;;;;5095910;28;20063;-69
2022/09/14 07:31:21;;;;;;;1.80;1.70;;;18.10;69.20;;;;;;5095002;28;20119;-71
2022/09/14 07:33:50;;;;;;;2.03;1.80;;;18.10;68.90;;;;;;5096389;28;20462;-72
2022/09/14 07:36:16;;;;;;;1.73;1.63;;;18.20;68.80;;;;;;5094688;28;20077;-72
2022/09/14 07:38:41;;;;;;;1.88;1.77;;;18.20;68.70;;;;;;5095953;28;20021;-72
2022/09/14 07:41:08;;;;;;;1.80;1.70;;;18.30;68.50;;;;;;5094407;28;20508;-72
2022/09/14 07:43:33;;;;;;;2.28;2.08;;;18.30;68.30;;;;;;5096154;28;20035;-75
2022/09/14 07:46:03;;;;;;;1.73;1.63;;;18.40;68.30;;;;;;5094651;28;20032;-71
2022/09/14 07:48:33;;;;;;;1.90;1.80;;;18.50;68.20;;;;;;5095969;28;20488;-71
2022/09/14 07:51:05;;;;;;;2.13;1.95;;;18.50;68.00;;;;;;5094423;28;20036;-72
2022/09/14 07:53:34;;;;;;;1.90;1.80;;;18.60;67.70;;;;;;5096113;28;20439;-72
2022/09/14 07:56:00;;;;;;;1.80;1.70;;;18.60;67.60;;;;;;5094710;28;20110;-72
2022/09/14 07:58:27;;;;;;;1.80;1.70;;;18.60;67.40;;;;;;5094513;28;20157;-72
2022/09/14 08:01:08;;;;;;;1.90;1.80;;;18.70;67.40;;;;;;5094275;28;20032;-71
2022/09/14 08:03:38;;;;;;;1.98;1.40;;;18.70;66.90;;;;;;5094211;28;20028;-71
2022/09/14 08:06:07;;;;;;;1.38;1.27;;;18.80;67.10;;;;;;5094872;28;20024;-72
2022/09/14 08:08:35;;;;;;;1.50;1.40;;;18.90;67.00;;;;;;5095752;28;20023;-71
2022/09/14 08:11:16;;;;;;;1.42;1.33;;;18.90;66.80;;;;;;5095857;28;20119;-73
2022/09/14 08:13:44;;;;;;;1.63;1.52;;;19.00;66.20;;;;;;5095568;28;20028;-73
2022/09/14 08:16:12;;;;;;;1.50;1.40;;;19.10;66.50;;;;;;5094886;28;20074;-72
2022/09/14 08:18:38;;;;;;;1.60;1.50;;;19.10;66.20;;;;;;5095663;28;20028;-71
2022/09/14 08:21:07;;;;;;;1.55;1.45;;;19.20;66.20;;;;;;5095175;28;20169;-78
2022/09/14 08:23:34;;;;;;;1.35;1.27;;;19.20;66.10;;;;;;5094143;28;20085;-72
2022/09/14 08:26:08;;;;;;;1.45;1.35;;;19.20;65.90;;;;;;5093651;28;20050;-72
2022/09/14 08:28:35;;;;;;;1.48;1.35;;;19.20;65.60;;;;;;5094988;28;20059;-71
2022/09/14 08:31:15;;;;;;;1.52;1.42;;;19.20;65.40;;;;;;5095072;28;20032;-72
2022/09/14 08:33:44;;;;;;;1.33;1.33;;;19.20;64.90;;;;;;5094011;28;20024;-72
2022/09/14 08:36:12;;;;;;;1.50;1.40;;;19.20;65.20;;;;;;5093705;28;20054;-71
2022/09/14 08:38:37;;;;;;;1.20;1.20;;;19.20;65.20;;;;;;5093550;28;20032;-71
2022/09/14 08:41:16;;;;;;;1.27;1.20;;;19.10;65.20;;;;;;5094581;28;20070;-71
2022/09/14 08:43:41;;;;;;;1.55;1.45;;;19.10;64.80;;;;;;5094840;28;20473;-72
2022/09/14 08:46:18;;;;;;;1.25;1.25;;;19.10;65.10;;;;;;5076981;28;20039;-71
2022/09/14 08:48:47;;;;;;;1.00;1.00;;;19.10;65.00;;;;;;5076438;28;20024;-72
2022/09/14 08:51:15;;;;;;;1.60;1.50;;;19.20;64.90;;;;;;5094823;28;20085;-72
2022/09/14 08:53:42;;;;;;;1.15;1.10;;;19.20;64.80;;;;;;5076692;28;20099;-68
2022/09/14 08:56:24;;;;;;;1.70;1.60;;;19.20;65.30;;;;;;5076489;28;20024;-72
2022/09/14 08:59:04;;;;;;;1.35;1.33;;;19.10;64.50;;;;;;5076606;28;20021;-71
2022/09/14 09:01:48;;;;;;;1.20;1.20;;;19.10;64.50;;;;;;5076356;28;20420;-71
2022/09/14 09:04:35;;;;;;;1.10;1.10;;;19.10;64.30;;;;;;5076914;28;20377;-72
2022/09/14 09:07:01;;;;;;;1.65;1.55;;;19.00;64.50;;;;;;5094539;28;20034;-72
2022/09/14 09:09:51;;;;;;;1.60;1.50;;;19.00;64.60;;;;;;5076333;28;20024;-70
2022/09/14 09:12:51;;;;;;;1.50;1.40;;;18.90;64.20;;;;;;5094725;28;20439;-72
2022/09/14 09:15:54;;;;;;;1.45;1.35;;;19.00;64.60;;;;;;5076278;28;20142;-72
2022/09/14 09:18:31;;;;;;;1.50;1.40;;;18.90;64.50;;;;;;5058863;28;20083;-72
2022/09/14 09:21:02;;;;;;;1.40;1.30;;;18.90;64.50;;;;;;5076366;28;20071;-71
2022/09/14 09:23:29;;;;;;;1.50;1.40;;;18.90;64.50;;;;;;5076562;28;20027;-73
2022/09/14 09:25:58;;;;;;;1.35;1.27;;;18.90;64.50;;;;;;5076246;28;20389;-73
2022/09/14 09:28:27;;;;;;;1.40;1.30;;;18.80;64.30;;;;;;5075937;28;20386;-72
2022/09/14 09:30:56;;;;;;;1.27;1.27;;;18.80;64.30;;;;;;5093814;28;20108;-74
2022/09/14 09:33:24;;;;;;;1.48;1.33;;;18.80;64.40;;;;;;5076361;28;20031;-72
2022/09/14 09:35:52;;;;;;;1.52;1.42;;;18.80;64.30;;;;;;5093898;28;20416;-73
2022/09/14 09:38:23;;;;;;;1.20;1.20;;;18.80;64.20;;;;;;5076329;28;20028;-71
2022/09/14 09:41:06;;;;;;;1.23;1.20;;;18.80;64.10;;;;;;5094334;28;20051;-72
2022/09/14 09:43:32;;;;;;;1.20;1.20;;;18.80;63.90;;;;;;5093906;28;20028;-72
2022/09/14 09:46:04;;;;;;;1.20;1.10;;;18.80;64.00;;;;;;5093998;28;20024;-75
2022/09/14 09:48:48;;;;;;;1.05;1.05;;;18.80;63.90;;;;;;5076138;28;20377;-72
2022/09/14 09:51:35;;;;;;;1.02;1.02;;;18.80;64.00;;;;;;5075415;28;20039;-75
2022/09/14 09:54:12;;;;;;;1.13;1.13;;;18.80;63.90;;;;;;5074895;28;20555;-73
2022/09/14 09:56:59;;;;;;;1.05;1.05;;;18.90;63.60;;;;;;5093621;28;20462;-72
2022/09/14 09:59:37;;;;;;;1.02;0.98;;;18.90;63.30;;;;;;5075584;28;20024;-72
2022/09/14 10:02:28;;;;;;;1.08;1.08;;;19.00;63.30;;;;;;5093867;28;20024;-72
2022/09/14 10:05:04;;;;;;;2.60;1.10;;;19.10;63.20;;;;;;5094084;28;20036;-72
2022/09/14 10:07:55;;;;;;;1.02;1.02;;;19.20;63.30;;;;;;5075776;28;20032;-72
2022/09/14 10:10:41;;;;;;;1.02;1.00;;;19.40;63.20;;;;;;5083117;28;20478;-71
2022/09/14 10:13:32;;;;;;;1.30;1.27;;;19.50;62.90;;;;;;5093988;28;20024;-72
2022/09/14 10:16:16;;;;;;;1.00;1.00;;;19.60;62.40;;;;;;5075674;28;20048;-72
2022/09/14 10:18:45;;;;;;;1.10;1.05;;;19.80;62.50;;;;;;5093594;28;20382;-72
2022/09/14 10:21:12;;;;;;;1.10;1.10;;;19.90;62.50;;;;;;5075557;28;20365;-70
2022/09/14 10:23:38;;;;;;;1.00;1.00;;;20.00;62.40;;;;;;5075818;28;20055;-72
2022/09/14 10:26:13;;;;;;;1.15;1.13;;;20.10;62.20;;;;;;5075530;28;20598;-72
2022/09/14 10:28:44;;;;;;;1.00;1.00;;;20.20;61.90;;;;;;5093596;28;20032;-72
2022/09/14 10:31:19;;;;;;;1.30;1.20;;;20.30;61.90;;;;;;5075410;28;20028;-72
2022/09/14 10:33:51;;;;;;;1.33;1.33;;;20.40;61.70;;;;;;5075473;28;20031;-73
2022/09/14 10:36:40;;;;;;;1.20;1.10;;;20.50;61.50;;;;;;5093643;28;20496;-72
2022/09/14 10:39:30;;;;;;;1.55;1.45;;;20.60;61.00;;;;;;5075554;28;20028;-72
2022/09/14 10:42:13;;;;;;;1.13;1.13;;;20.70;60.80;;;;;;5087302;28;20140;-73
2022/09/14 10:44:57;;;;;;;1.25;1.25;;;20.70;61.00;;;;;;5093568;28;20426;-72
2022/09/14 10:47:41;;;;;;;1.38;1.27;;;20.80;61.00;;;;;;5093703;28;20032;-72
2022/09/14 10:50:26;;;;;;;0.90;0.90;;;20.80;60.80;;;;;;5093727;28;20063;-72
2022/09/14 10:53:13;;;;;;;1.10;1.10;;;20.80;60.00;;;;;;5092289;28;20028;-71
2022/09/14 10:55:59;;;;;;;1.23;1.15;;;20.80;60.50;;;;;;5093531;28;20058;-72
2022/09/14 10:58:51;;;;;;;0.93;0.93;;;20.80;60.40;;;;;;5093311;28;20067;-72
2022/09/14 11:01:27;;;;;;;1.20;1.15;;;20.80;60.40;;;;;;5093122;28;20024;-72
2022/09/14 11:04:09;;;;;;;1.67;1.58;;;20.70;60.40;;;;;;5095497;28;20031;-72
2022/09/14 11:07:00;;;;;;;1.50;1.40;;;20.70;60.00;;;;;;5095530;28;20024;-72
2022/09/14 11:09:31;;;;;;;2.85;1.60;;;20.70;60.40;;;;;;5095548;28;20478;-72
2022/09/14 11:12:16;;;;;;;1.50;1.40;;;20.70;60.40;;;;;;5096601;28;20112;-72
2022/09/14 11:15:20;;;;;;;1.23;1.23;;;20.60;60.20;;;;;;5095510;28;20032;-72
2022/09/14 11:17:52;;;;;;;1.33;1.27;;;20.50;59.70;;;;;;5096446;28;20376;-74
2022/09/14 11:20:30;;;;;;;1.67;1.58;;;20.40;60.50;;;;;;5096697;28;20028;-72
2022/09/14 11:22:59;;;;;;;1.42;1.33;;;20.30;60.40;;;;;;5095352;28;20110;-72
2022/09/14 11:25:52;;;;;;;1.50;1.40;;;20.20;60.70;;;;;;5095125;28;20032;-71
2022/09/14 11:28:26;;;;;;;1.50;1.40;;;20.10;60.40;;;;;;5096101;28;20041;-72
2022/09/14 11:31:03;;;;;;;1.40;1.30;;;20.00;60.80;;;;;;5096441;28;20035;-71
2022/09/14 11:33:45;;;;;;;1.50;1.40;;;20.00;61.00;;;;;;5095155;28;20097;-71
2022/09/14 11:36:24;;;;;;;1.58;1.48;;;19.90;60.90;;;;;;5095526;28;20028;-72
2022/09/14 11:39:02;;;;;;;1.67;1.58;;;19.90;60.90;;;;;;5095031;28;20053;-71
2022/09/14 11:41:31;;;;;;;1.20;1.20;;;19.80;61.10;;;;;;5086475;28;20130;-73
2022/09/14 11:44:00;;;;;;;1.67;1.58;;;19.80;61.30;;;;;;5077914;28;20046;-71
2022/09/14 11:46:32;;;;;;;1.50;1.40;;;19.70;61.30;;;;;;5077754;28;20035;-72
2022/09/14 11:49:20;;;;;;;1.60;1.50;;;19.70;61.40;;;;;;5096446;28;20454;-71
2022/09/14 11:51:54;;;;;;;1.60;1.50;;;19.70;61.40;;;;;;5078029;28;20036;-72
2022/09/14 11:54:22;;;;;;;1.60;1.50;;;19.60;61.40;;;;;;5095883;28;20069;-73
2022/09/14 11:56:58;;;;;;;1.60;1.50;;;19.60;61.40;;;;;;5095802;28;20028;-72
2022/09/14 11:59:47;;;;;;;1.60;1.50;;;19.60;61.50;;;;;;5096168;28;20020;-71
2022/09/14 12:02:21;;;;;;;1.60;1.50;;;19.60;61.40;;;;;;5077915;28;20020;-72
2022/09/14 12:05:09;;;;;;;1.77;1.67;;;19.60;61.50;;;;;;5095755;28;20027;-73
2022/09/14 12:07:47;;;;;;;1.30;1.30;;;19.60;61.30;;;;;;5077741;28;20028;-71
2022/09/14 12:10:17;;;;;;;1.75;1.65;;;19.60;61.50;;;;;;5096119;28;20133;-71
2022/09/14 12:13:19;;;;;;;1.70;1.60;;;19.60;61.60;;;;;;5095132;28;20024;-73
2022/09/14 12:15:45;;;;;;;1.52;1.42;;;19.60;61.30;;;;;;5035496;28;20071;-72
2022/09/14 12:18:12;;;;;;;2.05;1.90;;;19.60;61.60;;;;;;5077702;28;20527;-72
2022/09/14 12:20:45;;;;;;;1.60;1.50;;;19.60;61.60;;;;;;5077260;28;20060;-72
2022/09/14 12:23:38;;;;;;;1.70;1.60;;;19.50;61.70;;;;;;5095532;28;20024;-72
2022/09/14 12:26:10;;;;;;;1.70;1.60;;;19.50;61.60;;;;;;5077175;28;20341;-72
2022/09/14 12:28:38;;;;;;;1.95;1.80;;;19.40;61.80;;;;;;5095494;28;20028;-73
2022/09/14 12:31:07;;;;;;;1.70;1.60;;;19.40;61.90;;;;;;5076806;28;20085;-71
2022/09/14 12:33:33;;;;;;;2.60;1.70;;;19.30;62.00;;;;;;5095052;28;20073;-72
2022/09/14 12:36:37;;;;;;;1.70;1.60;;;19.30;62.00;;;;;;5095160;28;20027;-72
2022/09/14 12:39:22;;;;;;;1.70;1.60;;;19.30;62.00;;;;;;4996548;28;20483;-72
2022/09/14 12:41:47;;;;;;;;;;;19.20;62.10;;;;;;5025243;28;20515;-71
2022/09/14 12:44:28;;;;;;;1.60;1.50;;;19.20;62.00;;;;;;5060611;28;19911;-72
2022/09/14 12:46:53;;;;;;;1.67;1.58;;;19.20;62.20;;;;;;5093274;28;20028;-73
2022/09/14 12:49:26;;;;;;;1.77;1.67;;;19.20;62.40;;;;;;5093560;28;20024;-72
2022/09/14 12:51:52;;;;;;;1.90;1.80;;;19.20;62.50;;;;;;5094016;28;20031;-71
2022/09/14 12:54:30;;;;;;;1.85;1.75;;;19.20;62.60;;;;;;5095168;28;20339;-72
2022/09/14 12:57:14;;;;;;;2.00;1.90;;;19.20;62.60;;;;;;5093191;28;20081;-72
2022/09/14 13:00:13;;;;;;;2.10;1.90;;;19.20;62.50;;;;;;5093219;28;20022;-72
2022/09/14 13:02:55;;;;;;;2.50;1.95;;;19.20;62.60;;;;;;5090850;28;20039;-71
2022/09/14 13:05:24;;;;;;;1.90;1.80;;;19.30;62.70;;;;;;5094061;28;20466;-77
2022/09/14 13:07:50;;;;;;;2.13;2.00;;;19.40;62.70;;;;;;5092185;28;20130;-72
2022/09/14 13:10:30;;;;;;;1.83;1.73;;;19.50;62.60;;;;;;5091568;28;20039;-71
2022/09/14 13:12:58;;;;;;;2.10;1.90;;;19.60;63.00;;;;;;5092651;28;20065;-73
2022/09/14 13:15:36;;;;;;;2.47;1.92;;;19.80;62.20;;;;;;5091469;28;20036;-72
2022/09/14 13:18:04;;;;;;;4.85;2.22;;;19.90;62.00;;;;;;5087957;28;20118;-74
2022/09/14 13:20:32;;;;;;;2.05;1.90;;;19.90;62.00;;;;;;5091013;28;20554;-76
2022/09/14 13:22:58;;;;;;;2.00;1.90;;;20.00;62.00;;;;;;5092843;28;20435;-70
2022/09/14 13:25:28;;;;;;;3.22;2.05;;;20.00;61.90;;;;;;5091443;28;20760;-73
2022/09/14 13:27:56;;;;;;;2.10;1.90;;;20.00;62.00;;;;;;5093327;28;20477;-76
2022/09/14 13:30:24;;;;;;;2.53;1.80;;;20.10;61.90;;;;;;5092043;28;20031;-73
2022/09/14 13:32:54;;;;;;;3.42;2.15;;;20.20;61.90;;;;;;5092928;28;20114;-73
2022/09/14 13:35:26;;;;;;;2.17;2.08;;;20.30;61.80;;;;;;5091348;28;20016;-69
2022/09/14 13:37:52;;;;;;;2.78;2.10;;;20.50;61.60;;;;;;5092003;28;20028;-71
2022/09/14 13:40:23;;;;;;;2.00;1.90;;;20.50;61.40;;;;;;5092127;28;20035;-72
2022/09/14 13:42:50;;;;;;;2.17;2.03;;;20.80;61.30;;;;;;5090861;28;20036;-76
2022/09/14 13:45:15;;;;;;;2.00;1.75;;;21.10;61.10;;;;;;5091931;28;20032;-74
2022/09/14 13:47:41;;;;;;;1.98;1.80;;;21.40;60.70;;;;;;5090338;28;20024;-71
2022/09/14 13:50:07;;;;;;;2.03;1.92;;;21.50;59.90;;;;;;5092056;28;20036;-72
2022/09/14 13:52:37;;;;;;;1.83;1.70;;;21.70;59.60;;;;;;5091927;28;20860;-73
2022/09/14 13:55:20;;;;;;;2.72;2.10;;;21.70;59.60;;;;;;5088289;28;20043;-71
2022/09/14 13:58:14;;;;;;;3.40;1.83;;;21.70;59.40;;;;;;5089526;28;20028;-71
2022/09/14 14:01:03;;;;;;;1.85;1.73;;;21.70;59.40;;;;;;5085745;28;20113;-72
2022/09/14 14:03:30;;;;;;;3.03;2.10;;;22.00;59.50;;;;;;5090130;28;20029;-76
2022/09/14 14:05:57;;;;;;;1.80;1.70;;;22.20;59.70;;;;;;5089839;28;20023;-75
2022/09/14 14:08:38;;;;;;;2.00;1.90;;;22.50;59.80;;;;;;5087457;28;20038;-75
2022/09/14 14:11:07;;;;;;;19.90;2.30;;;23.00;59.40;;;;;;5090614;28;20135;-72
2022/09/14 14:13:36;;;;;;;10.05;2.83;;;23.40;58.90;;;;;;5090957;28;20031;-71
2022/09/14 14:16:23;;;;;;;4.97;2.30;;;23.80;58.70;;;;;;5091208;28;20024;-69
2022/09/14 14:18:54;;;;;;;5.38;1.98;;;24.30;57.70;;;;;;5092873;28;20039;-73
2022/09/14 14:21:29;;;;;;;5.15;1.90;;;24.70;58.10;;;;;;5091687;28;20082;-73
2022/09/14 14:24:16;;;;;;;5.43;2.00;;;25.10;57.50;;;;;;5089860;28;20024;-72
2022/09/14 14:26:51;;;;;;;5.03;2.00;;;25.50;56.60;;;;;;5089238;28;20028;-73
2022/09/14 14:29:17;;;;;;;2.40;2.13;;;25.80;56.60;;;;;;5090359;28;20028;-73
2022/09/14 14:31:44;;;;;;;2.42;2.20;;;26.00;56.20;;;;;;5090047;28;20020;-71
2022/09/14 14:34:20;;;;;;;2.65;1.98;;;26.20;55.60;;;;;;5090215;28;20051;-74
2022/09/14 14:36:48;;;;;;;3.97;2.20;;;26.30;55.50;;;;;;5093412;28;20028;-73
2022/09/14 14:39:16;;;;;;;3.20;1.70;;;26.20;54.70;;;;;;5095204;28;20020;-72
2022/09/14 14:41:42;;;;;;;2.13;1.92;;;26.10;54.60;;;;;;5095166;28;20130;-69
2022/09/14 14:44:22;;;;;;;3.55;2.00;;;26.10;54.50;;;;;;5092395;28;20540;-71
2022/09/14 14:46:47;;;;;;;3.15;1.98;;;26.20;54.20;;;;;;5092417;28;20024;-70
2022/09/14 14:49:15;;;;;;;1.95;1.85;;;26.40;54.00;;;;;;5094776;28;20477;-71
2022/09/14 14:51:41;;;;;;;2.13;1.92;;;26.40;53.40;;;;;;5094182;28;20102;-76
2022/09/14 14:54:09;;;;;;;2.30;1.77;;;26.40;53.50;;;;;;5095067;28;20028;-72
2022/09/14 14:56:36;;;;;;;3.78;1.90;;;26.50;53.50;;;;;;5095386;28;20089;-73
2022/09/14 14:59:02;;;;;;;3.03;2.10;;;26.50;53.30;;;;;;5076320;28;20129;-72
2022/09/14 15:01:28;;;;;;;2.22;1.83;;;26.60;53.10;;;;;;5095767;28;20036;-73
2022/09/14 15:03:53;;;;;;;2.20;2.00;;;26.60;52.90;;;;;;5094947;28;20347;-73
2022/09/14 15:06:22;;;;;;;3.38;1.95;;;26.50;52.80;;;;;;5095330;28;20051;-74
2022/09/14 15:08:53;;;;;;;2.20;2.00;;;26.30;52.70;;;;;;5077768;28;20024;-74
2022/09/14 15:11:19;;;;;;;2.58;1.92;;;25.90;52.70;;;;;;5077925;28;20078;-75
2022/09/14 15:13:45;;;;;;;1.90;1.70;;;25.50;52.90;;;;;;5094003;28;20028;-70
2022/09/14 15:16:11;;;;;;;2.20;2.00;;;25.10;53.30;;;;;;5095197;28;20385;-75
2022/09/14 15:18:37;;;;;;;2.65;1.83;;;24.70;53.60;;;;;;5077264;28;20024;-75
2022/09/14 15:21:03;;;;;;;3.25;1.90;;;24.30;54.00;;;;;;5095017;28;20040;-74
2022/09/14 15:23:29;;;;;;;1.98;1.88;;;23.90;54.40;;;;;;5077175;28;20123;-72
2022/09/14 15:25:55;;;;;;;2.05;1.95;;;23.70;54.80;;;;;;5076595;28;20224;-75
2022/09/14 15:28:21;;;;;;;2.15;2.00;;;23.40;55.20;;;;;;5077513;28;20044;-73
2022/09/14 15:30:47;;;;;;;2.90;2.08;;;23.10;55.50;;;;;;5095744;28;20115;-74
2022/09/14 15:33:12;;;;;;;2.20;2.00;;;22.80;55.80;;;;;;5095557;28;20025;-73
2022/09/14 15:35:38;;;;;;;3.33;1.95;;;22.60;56.10;;;;;;5077232;28;20054;-74
2022/09/14 15:38:05;;;;;;;2.17;1.98;;;22.40;56.30;;;;;;5095084;28;20032;-75
2022/09/14 15:40:31;;;;;;;2.50;2.30;;;22.30;56.60;;;;;;5077216;28;20032;-71
2022/09/14 15:42:57;;;;;;;2.65;1.95;;;22.00;56.80;;;;;;5095529;28;20039;-74
2022/09/14 15:45:23;;;;;;;2.88;2.05;;;21.90;57.10;;;;;;5095556;28;20103;-73
2022/09/14 15:47:48;;;;;;;2.15;1.95;;;21.70;57.20;;;;;;5094941;28;20065;-78
2022/09/14 15:50:14;;;;;;;2.42;1.90;;;21.60;57.50;;;;;;5076994;28;20027;-71
2022/09/14 15:52:40;;;;;;;2.25;2.05;;;21.40;57.70;;;;;;5095610;28;20414;-71
2022/09/14 15:55:09;;;;;;;3.08;1.85;;;21.30;57.80;;;;;;5077352;28;20024;-77
2022/09/14 15:57:35;;;;;;;2.55;2.20;;;21.20;58.00;;;;;;5095257;28;20034;-72
2022/09/14 16:00:04;;;;;;;3.33;2.20;;;21.10;58.20;;;;;;5095021;28;20028;-75
2022/09/14 16:02:29;;;;;;;4.28;2.10;;;20.90;58.30;;;;;;5094450;28;20416;-73
2022/09/14 16:04:55;;;;;;;2.40;2.17;;;20.80;58.50;;;;;;5077150;28;20035;-73
2022/09/14 16:07:22;;;;;;;3.08;2.00;;;20.70;58.70;;;;;;5094861;28;20035;-73
2022/09/14 16:09:48;;;;;;;2.25;2.05;;;20.70;58.90;;;;;;5076601;28;20126;-76
2022/09/14 16:12:13;;;;;;;2.30;1.90;;;20.50;59.00;;;;;;5076629;28;20110;-73
2022/09/14 16:14:39;;;;;;;2.53;2.33;;;20.50;59.10;;;;;;5076630;28;20421;-72
2022/09/14 16:17:07;;;;;;;2.40;2.20;;;20.40;59.30;;;;;;5094596;28;20555;-72
2022/09/14 16:19:32;;;;;;;2.30;2.10;;;20.40;59.50;;;;;;5095110;28;20097;-72
2022/09/14 16:21:59;;;;;;;2.60;2.20;;;20.30;59.60;;;;;;5076353;28;20448;-73
2022/09/14 16:24:25;;;;;;;2.45;2.10;;;20.20;59.80;;;;;;5076318;28;20481;-73
2022/09/14 16:26:51;;;;;;;2.72;2.10;;;20.10;59.90;;;;;;5094473;28;20039;-75
2022/09/14 16:29:18;;;;;;;2.10;1.90;;;20.10;60.00;;;;;;5076194;28;20062;-73
2022/09/14 16:31:46;;;;;;;2.50;2.30;;;20.00;60.10;;;;;;5075971;28;20118;-73
2022/09/14 16:34:24;;;;;;;3.67;2.40;;;19.90;60.30;;;;;;5076360;28;20039;-71
2022/09/14 16:36:50;;;;;;;2.45;2.00;;;19.90;60.50;;;;;;5094565;28;20078;-75
2022/09/14 16:39:22;;;;;;;2.03;1.90;;;19.80;60.50;;;;;;5094404;28;20032;-71
2022/09/14 16:41:48;;;;;;;2.47;1.88;;;19.80;60.70;;;;;;5094172;28;20381;-73
2022/09/14 16:44:21;;;;;;;2.53;2.10;;;19.80;60.90;;;;;;5093877;28;20027;-77
2022/09/14 16:46:48;;;;;;;1.90;1.80;;;19.70;61.00;;;;;;5094326;28;20077;-77
2022/09/14 16:49:14;;;;;;;2.10;2.00;;;19.70;61.00;;;;;;5094693;28;20024;-73
2022/09/14 16:51:40;;;;;;;3.90;2.00;;;19.60;61.20;;;;;;5075849;28;20024;-73
2022/09/14 16:54:07;;;;;;;3.88;1.90;;;19.60;61.30;;;;;;5094234;28;20070;-72
2022/09/14 16:56:35;;;;;;;2.40;2.20;;;19.60;61.40;;;;;;5075875;28;20450;-71
2022/09/14 16:59:02;;;;;;;2.47;1.92;;;19.50;61.40;;;;;;5094145;28;20035;-74
2022/09/14 17:01:34;;;;;;;3.13;2.30;;;19.50;61.60;;;;;;5075885;28;20522;-74
2022/09/14 17:04:12;;;;;;;2.10;1.95;;;19.50;61.80;;;;;;5093535;28;20358;-73
2022/09/14 17:06:40;;;;;;;2.25;2.05;;;19.50;62.00;;;;;;5075723;28;20120;-77
2022/09/14 17:09:12;;;;;;;2.15;2.03;;;19.40;62.00;;;;;;5093703;28;20039;-73
2022/09/14 17:11:38;;;;;;;2.22;2.03;;;19.40;62.20;;;;;;5075684;28;20477;-76
2022/09/14 17:14:05;;;;;;;2.20;2.03;;;19.30;62.30;;;;;;5075716;28;20043;-73
2022/09/14 17:16:31;;;;;;;2.20;2.00;;;19.30;62.40;;;;;;5075814;28;20111;-73
2022/09/14 17:18:59;;;;;;;2.20;2.00;;;19.30;62.60;;;;;;5093675;28;20488;-71
2022/09/14 17:21:31;;;;;;;1.92;1.83;;;19.30;62.70;;;;;;5075711;28;20358;-70
2022/09/14 17:23:57;;;;;;;1.90;1.80;;;19.20;62.80;;;;;;5093129;28;20034;-71
2022/09/14 17:26:23;;;;;;;2.30;2.10;;;19.20;62.90;;;;;;5093275;28;20039;-72
2022/09/14 17:28:50;;;;;;;2.60;2.40;;;19.20;63.00;;;;;;5093642;28;20028;-80
2022/09/14 17:31:22;;;;;;;2.53;2.00;;;19.10;63.10;;;;;;5075529;28;20032;-78
2022/09/14 17:33:48;;;;;;;2.30;2.10;;;19.10;63.20;;;;;;5075119;28;20028;-73
2022/09/14 17:36:15;;;;;;;2.42;2.22;;;19.10;63.30;;;;;;5093082;28;20412;-72
2022/09/14 17:38:42;;;;;;;2.53;2.22;;;19.10;63.50;;;;;;5093821;28;20020;-70
2022/09/14 17:41:19;;;;;;;3.05;2.10;;;19.10;63.50;;;;;;5093362;28;20060;-74
2022/09/14 17:43:54;;;;;;;3.10;2.47;;;19.00;63.60;;;;;;5075213;28;20056;-74
2022/09/14 17:46:21;;;;;;;2.13;2.03;;;19.00;63.70;;;;;;5093671;28;20414;-76
2022/09/14 17:48:48;;;;;;;2.35;2.15;;;19.00;63.70;;;;;;5075077;28;20032;-74
2022/09/14 17:51:21;;;;;;;4.03;2.63;;;19.00;63.90;;;;;;5093715;28;20140;-75
2022/09/14 17:53:51;;;;;;;3.00;2.53;;;18.90;64.00;;;;;;5092897;28;20115;-72
2022/09/14 17:56:19;;;;;;;3.30;2.40;;;18.90;64.10;;;;;;5074947;28;20024;-74
2022/09/14 17:58:46;;;;;;;3.53;2.50;;;18.90;64.30;;;;;;5093252;28;20028;-72
2022/09/14 18:01:18;;;;;;;3.03;2.72;;;18.80;64.30;;;;;;5092984;28;20024;-73
2022/09/14 18:03:50;;;;;;;2.65;2.40;;;18.80;64.50;;;;;;5075279;28;20361;-77
2022/09/14 18:06:17;;;;;;;2.78;2.50;;;18.80;64.60;;;;;;5075110;28;20028;-73
2022/09/14 18:08:43;;;;;;;2.33;2.13;;;18.70;64.60;;;;;;5075011;28;20024;-73
2022/09/14 18:11:15;;;;;;;3.08;2.38;;;18.70;64.80;;;;;;5093963;28;20362;-74
2022/09/14 18:13:43;;;;;;;2.50;2.30;;;18.70;64.90;;;;;;5096920;28;20036;-73
2022/09/14 18:16:09;;;;;;;2.65;2.45;;;18.60;64.90;;;;;;5078835;28;20050;-74
2022/09/14 18:18:36;;;;;;;2.72;2.20;;;18.70;65.10;;;;;;5097598;28;20085;-76
2022/09/14 18:21:02;;;;;;;2.40;2.20;;;18.70;65.20;;;;;;5097446;28;20028;-74
2022/09/14 18:23:28;;;;;;;2.50;2.30;;;18.60;65.20;;;;;;5078988;28;20031;-73
2022/09/14 18:25:54;;;;;;;2.40;2.20;;;18.50;65.30;;;;;;5078636;28;20029;-74
2022/09/14 18:28:21;;;;;;;2.47;2.22;;;18.60;65.40;;;;;;5099366;28;20082;-73
2022/09/14 18:30:46;;;;;;;2.40;2.20;;;18.50;65.50;;;;;;5093641;28;20028;-74
2022/09/14 18:33:13;;;;;;;2.97;2.70;;;18.50;65.60;;;;;;5060201;28;20038;-78
2022/09/14 18:35:39;;;;;;;2.55;2.35;;;18.50;65.70;;;;;;5095604;28;20054;-79
2022/09/14 18:38:06;;;;;;;2.60;2.40;;;18.50;65.80;;;;;;5095770;28;20512;-76
2022/09/14 18:40:33;;;;;;;2.75;2.28;;;18.50;65.90;;;;;;5077114;28;20077;-77
2022/09/14 18:42:59;;;;;;;2.63;2.25;;;18.50;66.00;;;;;;5093200;28;20421;-78
2022/09/14 18:45:24;;;;;;;2.33;2.10;;;18.40;66.00;;;;;;5095406;28;20048;-76
2022/09/14 18:47:50;;;;;;;3.00;2.25;;;18.40;66.10;;;;;;5077155;28;20030;-77
2022/09/14 18:50:17;;;;;;;2.40;2.20;;;18.40;66.20;;;;;;5077179;28;20481;-77